createdAt,value
2022-09-02T04:00:32.981Z,0.00
2022-09-02T04:05:32.938Z,0.00
2022-09-02T04:10:32.863Z,0.00
2022-09-02T04:15:32.836Z,4.00
2022-09-02T04:20:32.770Z,8.00
2022-09-02T04:25:32.714Z,12.00
2022-09-02T04:30:32.664Z,24.00
2022-09-02T04:35:32.614Z,44.00
2022-09-02T04:40:32.594Z,76.00
2022-09-02T04:45:32.505Z,132.00
2022-09-02T04:50:32.445Z,224.00
2022-09-02T04:55:32.394Z,384.00
2022-09-02T05:00:32.342Z,644.00
2022-09-02T05:05:32.288Z,1032.00
2022-09-02T05:10:32.233Z,1376.00
2022-09-02T05:15:32.241Z,1620.00
2022-09-02T05:20:32.126Z,1740.00
2022-09-02T05:25:32.071Z,1916.00
2022-09-02T05:30:32.025Z,2244.00
2022-09-02T05:35:31.955Z,2620.00
2022-09-02T05:40:31.969Z,3364.00
2022-09-02T05:45:31.847Z,4236.00
2022-09-02T05:50:32.238Z,6396.00
2022-09-02T05:55:31.738Z,4872.00
2022-09-02T06:00:31.702Z,5612.00
2022-09-02T06:05:31.646Z,6828.00
2022-09-02T06:10:31.573Z,6724.00
2022-09-02T06:15:31.644Z,7184.00
2022-09-02T06:20:31.466Z,8420.00
2022-09-02T06:25:31.424Z,30464.00
2022-09-02T06:30:31.357Z,21952.00
2022-09-02T06:35:31.322Z,15200.00
2022-09-02T06:40:31.259Z,29568.00
2022-09-02T06:45:31.214Z,14080.00
2022-09-02T06:50:31.140Z,14560.00
2022-09-02T06:55:31.100Z,18176.00
2022-09-02T07:00:31.034Z,23904.00
2022-09-02T07:05:30.992Z,5196.00
2022-09-02T07:10:30.944Z,8860.00
2022-09-02T07:15:30.890Z,9024.00
2022-09-02T07:20:30.945Z,5640.00
2022-09-02T07:25:30.775Z,5248.00
2022-09-02T07:30:30.799Z,6532.00
2022-09-02T07:35:30.658Z,7676.00
2022-09-02T07:40:30.653Z,8432.00
2022-09-02T07:45:30.563Z,10404.00
2022-09-02T07:50:30.508Z,10780.00
2022-09-02T07:55:30.453Z,8632.00
2022-09-02T08:00:30.400Z,9692.00
2022-09-02T08:05:30.353Z,9452.00
2022-09-02T08:10:30.284Z,10252.00
2022-09-02T08:15:30.249Z,7132.00
2022-09-02T08:20:30.185Z,9852.00
2022-09-02T08:25:30.137Z,7752.00
2022-09-02T08:30:30.081Z,7832.00
2022-09-02T08:35:30.029Z,10300.00
2022-09-02T08:40:29.997Z,7596.00
2022-09-02T08:45:29.989Z,8500.00
2022-09-02T08:50:29.866Z,8512.00
2022-09-02T08:55:29.813Z,7320.00
2022-09-02T09:00:29.757Z,8096.00
2022-09-02T09:05:29.852Z,6952.00
2022-09-02T09:10:29.662Z,7928.00
2022-09-02T09:15:29.613Z,7248.00
2022-09-02T09:20:29.549Z,7192.00
2022-09-02T09:25:29.493Z,6756.00
2022-09-02T09:30:29.443Z,6712.00
2022-09-02T09:35:29.392Z,6796.00
2022-09-02T09:40:29.387Z,7068.00
2022-09-02T09:45:29.388Z,7168.00
2022-09-02T09:50:29.236Z,7236.00
2022-09-02T09:55:29.184Z,7260.00
2022-09-02T10:00:29.131Z,7316.00
2022-09-02T10:05:29.076Z,7556.00
2022-09-02T10:10:29.038Z,5020.00
2022-09-02T10:15:36.012Z,8432.00
2022-09-02T10:20:28.918Z,8876.00
2022-09-02T10:25:28.860Z,6580.00
2022-09-02T10:30:28.817Z,6824.00
2022-09-02T10:35:28.764Z,7112.00
2022-09-02T10:40:28.865Z,7188.00
2022-09-02T10:45:28.673Z,7120.00
2022-09-02T10:50:28.674Z,6888.00
2022-09-02T10:55:28.538Z,7416.00
2022-09-02T11:00:28.531Z,7176.00
2022-09-02T11:05:28.444Z,6848.00
2022-09-02T11:10:28.378Z,6896.00
2022-09-02T11:15:28.325Z,7424.00
2022-09-02T11:20:28.270Z,7756.00
2022-09-02T11:25:28.220Z,8332.00
2022-09-02T11:30:28.169Z,10780.00
2022-09-02T11:35:28.124Z,8376.00
2022-09-02T11:40:34.810Z,7312.00
2022-09-02T11:45:29.090Z,7332.00
2022-09-02T11:50:27.953Z,7748.00
2022-09-02T11:55:28.901Z,7708.00
2022-09-02T12:00:27.849Z,8096.00
2022-09-02T12:05:27.930Z,7336.00
2022-09-02T12:10:27.747Z,7064.00
2022-09-02T12:15:27.689Z,8352.00
2022-09-02T12:20:27.639Z,8612.00
2022-09-02T12:25:27.595Z,7780.00
2022-09-02T12:30:27.538Z,5220.00
2022-09-02T12:35:27.722Z,8792.00
2022-09-02T12:40:29.214Z,9072.00
2022-09-02T12:45:29.090Z,7032.00
2022-09-02T12:50:27.322Z,7752.00
2022-09-02T12:55:27.273Z,6684.00
2022-09-02T13:00:27.234Z,7652.00
2022-09-02T13:05:27.164Z,5572.00
2022-09-02T13:10:27.115Z,4308.00
2022-09-02T13:15:27.069Z,4444.00
2022-09-02T13:20:27.010Z,4472.00
2022-09-02T13:25:29.141Z,7108.00
2022-09-02T13:30:26.944Z,6912.00
2022-09-02T13:35:26.850Z,6944.00
2022-09-02T13:40:26.796Z,6732.00
2022-09-02T13:45:26.741Z,6620.00
2022-09-02T13:50:26.702Z,5680.00
2022-09-02T13:55:26.631Z,5552.00
2022-09-02T14:00:26.677Z,5916.00
2022-09-02T14:05:26.540Z,5792.00
2022-09-02T14:10:26.487Z,5560.00
2022-09-02T14:15:26.462Z,5676.00
2022-09-02T14:20:26.394Z,5672.00
2022-09-02T14:25:27.601Z,5836.00
2022-09-02T14:30:26.282Z,5432.00
2022-09-02T14:35:26.209Z,5804.00
2022-09-02T14:40:26.164Z,4060.00
2022-09-02T14:45:26.113Z,3344.00
2022-09-02T14:50:26.055Z,4656.00
2022-09-02T14:55:26.004Z,4244.00
2022-09-02T15:00:25.949Z,5508.00
2022-09-02T15:05:25.954Z,4376.00
2022-09-02T15:10:25.842Z,5348.00
2022-09-02T15:15:25.808Z,5588.00
2022-09-02T15:20:25.734Z,5552.00
2022-09-02T15:25:25.685Z,5436.00
2022-09-02T15:30:25.630Z,5448.00
2022-09-02T15:35:25.579Z,5496.00
2022-09-02T15:40:25.531Z,5360.00
2022-09-02T15:45:25.473Z,5280.00
2022-09-02T15:50:25.424Z,5084.00
2022-09-02T15:55:29.531Z,5068.00
2022-09-02T16:00:27.784Z,4824.00
2022-09-02T16:05:25.258Z,4820.00
2022-09-02T16:10:25.204Z,4748.00
2022-09-02T16:15:32.237Z,4256.00
2022-09-02T16:20:25.096Z,4444.00
2022-09-02T16:25:25.045Z,3024.00
2022-09-02T16:30:24.994Z,4168.00
2022-09-02T16:35:24.964Z,3824.00
2022-09-02T16:40:24.875Z,3536.00
2022-09-02T16:45:24.841Z,3212.00
2022-09-02T16:50:24.782Z,2868.00
2022-09-02T16:55:24.732Z,2648.00
2022-09-02T17:00:24.677Z,2440.00
2022-09-02T17:05:24.622Z,2288.00
2022-09-02T17:10:24.568Z,2096.00
2022-09-02T17:15:24.517Z,1880.00
2022-09-02T17:20:24.922Z,1712.00
2022-09-02T17:25:24.395Z,1552.00
2022-09-02T17:30:24.413Z,1384.00
2022-09-02T17:35:24.295Z,1248.00
2022-09-02T17:40:24.249Z,1104.00
2022-09-02T17:45:24.192Z,952.00
2022-09-02T17:50:24.135Z,796.00
2022-09-02T17:55:24.082Z,640.00
2022-09-02T18:00:24.032Z,484.00
2022-09-02T18:05:23.965Z,332.00
2022-09-02T18:10:23.921Z,216.00
2022-09-02T18:15:23.869Z,140.00
2022-09-02T18:20:23.812Z,88.00
2022-09-02T18:25:23.762Z,48.00
2022-09-02T18:30:23.761Z,20.00
2022-09-02T18:35:23.653Z,8.00
2022-09-02T18:40:23.601Z,4.00
2022-09-02T18:45:23.547Z,0.00
2022-09-02T18:50:44.945Z,0.00
2022-09-02T18:55:24.436Z,0.00
2022-09-02T19:00:23.386Z,0.00
2022-09-02T19:05:23.334Z,0.00
2022-09-02T19:10:23.275Z,0.00
2022-09-02T19:15:23.224Z,0.00
2022-09-02T19:20:23.165Z,0.00
2022-09-02T19:25:23.108Z,0.00
2022-09-02T19:30:23.051Z,0.00
2022-09-02T19:35:22.998Z,0.00
2022-09-02T19:40:22.932Z,0.00
2022-09-02T19:45:22.941Z,0.00
2022-09-02T19:50:22.823Z,0.00
2022-09-02T19:55:22.779Z,0.00
2022-09-02T20:00:22.729Z,0.00
2022-09-02T20:05:22.670Z,0.00
2022-09-02T20:10:27.647Z,0.00
2022-09-02T20:15:23.556Z,0.00
2022-09-02T20:20:22.545Z,0.00
2022-09-02T20:25:22.437Z,0.00
2022-09-02T20:30:22.412Z,0.00
2022-09-02T20:35:22.341Z,0.00
2022-09-02T20:40:22.284Z,0.00
2022-09-02T20:45:22.225Z,0.00
2022-09-02T20:50:22.292Z,0.00
2022-09-02T20:55:22.126Z,0.00
2022-09-02T21:00:22.073Z,0.00
2022-09-02T21:05:22.736Z,0.00
2022-09-02T21:10:21.961Z,0.00
2022-09-02T21:15:21.905Z,0.00
2022-09-02T21:20:21.850Z,0.00
2022-09-02T21:25:21.799Z,0.00
2022-09-02T21:30:21.743Z,0.00
2022-09-02T21:35:21.691Z,0.00
2022-09-02T21:40:21.756Z,0.00
2022-09-02T21:45:21.586Z,0.00
2022-09-02T21:50:22.425Z,0.00
2022-09-02T21:55:21.476Z,0.00
2022-09-02T22:00:21.429Z,0.00
2022-09-02T22:05:21.369Z,0.00
2022-09-02T22:10:21.319Z,0.00
2022-09-02T22:15:21.264Z,0.00
2022-09-02T22:20:21.206Z,0.00
2022-09-02T22:25:21.160Z,0.00
2022-09-02T22:30:21.102Z,0.00
2022-09-02T22:35:21.159Z,0.00
2022-09-02T22:40:20.994Z,0.00
2022-09-02T22:45:20.937Z,0.00
2022-09-02T22:50:20.891Z,0.00
2022-09-02T22:55:20.832Z,0.00
2022-09-02T23:00:20.782Z,0.00
2022-09-02T23:05:20.726Z,0.00
2022-09-02T23:10:20.674Z,0.00
2022-09-02T23:15:20.620Z,0.00
2022-09-02T23:20:20.565Z,0.00
2022-09-02T23:25:20.511Z,0.00
